Time;durP1;ratioP1;P1;durP2;ratioP2;P2;SDS_P1;SDS_P2;PMS_P1;PMS_P2;Temp;Humidity;BMP_temperature;BMP_pressure;BME280_temperature;BME280_humidity;BME280_pressure;Samples;Min_cycle;Max_cycle;Signal;HPM_P1;HPM_P2
2021/05/18 00:02:18;;;;;;;;;;;;;;;21.63;58.74;101411.44;5128439;28;1279;-69
2021/05/18 00:05:05;;;;;;;;;;;;;;;21.62;59.08;101415.00;5128664;27;1176;-69
2021/05/18 00:08:02;;;;;;;;;;;;;;;21.62;58.84;101421.19;5132693;27;951;-66
2021/05/18 00:14:02;;;;;;;;;;;;;;;21.62;58.90;101409.72;5131370;27;1018;-69
2021/05/18 00:16:48;;;;;;;;;;;;;;;21.62;59.12;101415.00;5115995;27;1979;-69
2021/05/18 00:19:33;;;;;;;;;;;;;;;21.62;58.91;101425.63;5131828;27;1061;-69
2021/05/18 00:22:18;;;;;;;;;;;;;;;21.61;59.15;101421.28;5131831;27;1277;-68
2021/05/18 00:25:05;;;;;;;;;;;;;;;21.60;59.17;101411.63;5116560;27;964;-68
2021/05/18 00:27:50;;;;;;;;;;;;;;;21.60;59.31;101406.31;5131413;27;1064;-69
2021/05/18 00:30:36;;;;;;;;;;;;;;;21.60;59.18;101416.91;5132093;27;1529;-67
2021/05/18 00:33:26;;;;;;;;;;;;;;;21.59;59.27;101409.91;5134482;27;1055;-66
2021/05/18 00:36:13;;;;;;;;;;;;;;;21.57;59.11;101407.34;5154276;27;1970;-67
2021/05/18 00:38:59;;;;;;;;;;;;;;;21.57;59.44;101398.53;5151703;27;761;-68
2021/05/18 00:41:45;;;;;;;;;;;;;;;21.58;59.19;101394.94;5152503;27;1396;-69
2021/05/18 00:44:30;;;;;;;;;;;;;;;21.57;59.46;101393.22;5152141;27;701;-69
2021/05/18 00:47:16;;;;;;;;;;;;;;;21.58;59.45;101394.94;5151969;27;1297;-68
2021/05/18 00:50:02;;;;;;;;;;;;;;;21.57;59.46;101385.28;5151447;27;1175;-68
2021/05/18 00:52:48;;;;;;;;;;;;;;;21.55;59.33;101385.34;5152391;27;1141;-68
2021/05/18 00:58:55;;;;;;;;;;;;;;;21.54;59.56;101380.16;5067488;28;691;-69
2021/05/18 01:01:40;;;;;;;;;;;;;;;21.54;59.48;101381.03;5152224;27;1283;-68
2021/05/18 01:04:26;;;;;;;;;;;;;;;21.53;59.70;101384.59;5151981;27;697;-67
2021/05/18 01:07:11;;;;;;;;;;;;;;;21.53;59.41;101384.59;5152103;27;1224;-67
2021/05/18 01:09:57;;;;;;;;;;;;;;;21.53;59.57;101381.94;5151857;27;679;-68
2021/05/18 01:12:43;;;;;;;;;;;;;;;21.53;59.78;101370.50;5151917;27;1032;-68
2021/05/18 01:15:29;;;;;;;;;;;;;;;21.53;59.64;101366.03;5151437;27;1338;-68
2021/05/18 01:18:14;;;;;;;;;;;;;;;21.53;59.45;101367.84;5135773;27;715;-67
2021/05/18 01:20:59;;;;;;;;;;;;;;;21.52;59.93;101366.16;5151502;27;1285;-68
2021/05/18 01:23:45;;;;;;;;;;;;;;;21.52;59.65;101371.44;5151320;27;619;-68
2021/05/18 01:26:32;;;;;;;;;;;;;;;21.52;59.63;101366.16;5151380;27;1243;-70
2021/05/18 01:29:20;;;;;;;;;;;;;;;21.50;59.90;101358.28;5151180;27;650;-68
2021/05/18 01:32:08;;;;;;;;;;;;;;;21.50;59.77;101360.94;5150943;27;1262;-68
2021/05/18 01:34:54;;;;;;;;;;;;;;;21.50;60.00;101357.41;5135489;27;663;-68
2021/05/18 01:37:40;;;;;;;;;;;;;;;21.50;59.63;101358.28;5150928;27;1986;-69
2021/05/18 01:43:15;;;;;;;;;;;;;;;21.49;59.61;101345.94;5150920;27;624;-69
2021/05/18 01:46:00;;;;;;;;;;;;;;;21.49;60.04;101345.13;5151234;27;1223;-69
2021/05/18 01:48:51;;;;;;;;;;;;;;;21.49;59.72;101347.78;5150571;27;1468;-68
2021/05/18 01:51:43;;;;;;;;;;;;;;;21.48;59.70;101351.38;5149999;27;1456;-70
2021/05/18 01:54:31;;;;;;;;;;;;;;;21.48;59.98;101354.00;5135301;27;654;-69
2021/05/18 01:57:20;;;;;;;;;;;;;;;21.48;59.83;101354.88;5150620;27;1984;-68
2021/05/18 02:00:09;;;;;;;;;;;;;;;21.48;59.70;101361.97;5150863;27;1279;-69
2021/05/18 02:02:54;;;;;;;;;;;;;;;21.48;59.71;101352.22;5151278;27;1095;-68
2021/05/18 02:05:41;;;;;;;;;;;;;;;21.47;59.96;101352.28;5150340;27;1275;-69
2021/05/18 02:08:26;;;;;;;;;;;;;;;21.47;59.78;101341.69;5150430;27;718;-69
2021/05/18 02:11:11;;;;;;;;;;;;;;;21.47;60.11;101350.50;5150662;27;1319;-69
2021/05/18 02:13:59;;;;;;;;;;;;;;;21.45;59.83;101344.44;5149966;27;627;-68
2021/05/18 02:16:45;;;;;;;;;;;;;;;21.44;59.90;101342.72;5134144;27;1906;-68
2021/05/18 02:20:18;;;;;;;;;;;;;;;21.45;60.08;101341.81;5150378;27;713;-68
2021/05/18 02:26:07;;;;;;;;;;;;;;;21.43;60.22;101340.19;5149902;27;1282;-68
2021/05/18 02:28:52;;;;;;;;;;;;;;;21.43;60.04;101332.25;5149565;27;725;-67
2021/05/18 02:31:38;;;;;;;;;;;;;;;21.43;59.97;101335.72;5149909;27;1235;-68
2021/05/18 02:34:23;;;;;;;;;;;;;;;21.43;59.94;101337.53;5149600;27;750;-67
2021/05/18 02:37:09;;;;;;;;;;;;;;;21.43;59.95;101332.25;5150046;27;1894;-68
2021/05/18 02:39:54;;;;;;;;;;;;;;;21.43;60.24;101329.59;5150089;27;639;-67
2021/05/18 02:42:39;;;;;;;;;;;;;;;21.43;60.14;101329.59;5150055;27;1137;-68
2021/05/18 02:51:14;;;;;;;;;;;;;;;21.41;59.93;101327.00;5148644;27;1346;-68
2021/05/18 02:54:00;;;;;;;;;;;;;;;21.40;59.98;101324.47;5149519;27;684;-68
2021/05/18 02:59:34;;;;;;;;;;;;;;;21.40;60.23;101327.94;5149508;27;734;-66
2021/05/18 03:02:19;;;;;;;;;;;;;;;21.40;59.78;101333.25;5142117;27;1599;-69
2021/05/18 03:05:06;;;;;;;;;;;;;;;21.40;60.06;101335.06;5117052;27;1376;-68
2021/05/18 03:07:52;;;;;;;;;;;;;;;21.39;60.00;101333.34;5149661;27;1205;-69
2021/05/18 03:10:38;;;;;;;;;;;;;;;21.39;60.01;101339.50;5148833;27;1368;-69
2021/05/18 03:13:23;;;;;;;;;;;;;;;21.39;60.06;101338.66;5135041;27;727;-69
2021/05/18 03:16:08;;;;;;;;;;;;;;;21.39;59.81;101333.34;5128556;28;1967;-69
2021/05/18 03:18:55;;;;;;;;;;;;;;;21.39;59.91;101333.34;5128064;28;671;-68
2021/05/18 03:21:41;;;;;;;;;;;;;;;21.38;59.82;101337.78;5128591;28;1323;-69
2021/05/18 03:24:27;;;;;;;;;;;;;;;21.37;60.00;101341.38;5131694;27;683;-68
2021/05/18 03:27:12;;;;;;;;;;;;;;;21.39;60.15;101333.34;5149049;27;1327;-69
2021/05/18 03:30:01;;;;;;;;;;;;;;;21.37;60.11;101325.47;5149056;27;802;-68
2021/05/18 03:35:50;;;;;;;;;;;;;;;21.38;59.91;101318.38;5149101;27;1294;-68
2021/05/18 03:41:28;;;;;;;;;;;;;;;21.37;60.09;101322.00;5150292;27;1394;-69
2021/05/18 03:44:22;;;;;;;;;;;;;;;21.36;59.95;101326.44;5153571;27;641;-69
2021/05/18 04:17:21;;;;;;;;;;;;;;;21.34;59.99;101327.47;5132217;27;1977;-69
2021/05/18 04:20:21;;;;;;;;;;;;;;;21.34;59.98;101325.66;5131945;27;1279;-68
2021/05/18 04:52:52;;;;;;;;;;;;;;;21.32;60.18;101311.66;5130940;27;1055;-67
2021/05/18 05:07:32;;;;;;;;;;;;;;;21.35;60.18;101318.56;5130751;27;1362;-67
2021/05/18 05:10:23;;;;;;;;;;;;;;;21.35;60.33;101318.56;5131164;27;1217;-66
2021/05/18 05:15:56;;;;;;;;;;;;;;;21.33;60.47;101313.38;5151032;27;1299;-67
2021/05/18 05:18:41;;;;;;;;;;;;;;;21.34;60.17;101320.34;5151409;27;1969;-68
2021/05/18 05:21:32;;;;;;;;;;;;;;;21.34;60.36;101320.34;5140404;27;1217;-69
2021/05/18 05:24:17;;;;;;;;;;;;;;;21.34;60.54;101324.81;5130339;27;655;-68
2021/05/18 05:27:02;;;;;;;;;;;;;;;21.34;60.42;101316.88;5130574;27;1364;-68
2021/05/18 05:29:48;;;;;;;;;;;;;;;21.34;59.99;101319.53;5142759;27;706;-68
2021/05/18 05:32:34;;;;;;;;;;;;;;;21.34;60.24;101314.22;5151085;27;1602;-66
2021/05/18 05:35:19;;;;;;;;;;;;;;;21.33;60.10;101320.47;5150878;27;1361;-67
2021/05/18 05:38:06;;;;;;;;;;;;;;;21.34;59.93;101311.56;5151523;27;1960;-66
2021/05/18 05:41:07;;;;;;;;;;;;;;;21.29;60.08;101308.31;5151139;27;1329;-65
2021/05/18 05:43:52;;;;;;;;;;;;;;;21.30;59.97;101310.91;5151021;27;780;-64
2021/05/18 05:46:38;;;;;;;;;;;;;;;21.33;60.34;101325.75;5144149;27;1563;-64
2021/05/18 05:49:23;;;;;;;;;;;;;;;21.32;60.04;101322.25;5130183;27;1420;-65
2021/05/18 05:52:15;;;;;;;;;;;;;;;21.34;60.27;101319.53;5131403;27;1278;-62
2021/05/18 05:55:01;;;;;;;;;;;;;;;21.33;59.95;101320.47;5150786;27;706;-63
2021/05/18 05:57:46;;;;;;;;;;;;;;;21.27;59.89;101323.47;5151126;27;1976;-62
2021/05/18 06:00:32;;;;;;;;;;;;;;;21.25;60.10;101315.59;5130544;27;1341;-63
2021/05/18 06:03:18;;;;;;;;;;;;;;;21.33;60.27;101316.03;5129221;27;636;-66
2021/05/18 06:06:03;;;;;;;;;;;;;;;21.32;59.94;101310.78;5143346;27;1335;-67
2021/05/18 06:08:49;;;;;;;;;;;;;;;21.29;60.18;101297.72;5134682;27;635;-66
2021/05/18 06:47:35;;;;;;;;;;;;;;;21.27;60.41;101310.22;5133392;27;1173;-65
2021/05/18 06:50:28;;;;;;;;;;;;;;;21.28;60.14;101307.47;5113658;27;1363;-66
2021/05/18 06:53:14;;;;;;;;;;;;;;;21.25;60.02;101308.50;5108230;28;1004;-67
2021/05/18 06:56:02;;;;;;;;;;;;;;;21.27;60.22;101304.91;5092612;28;1284;-66
2021/05/18 07:00:06;;;;;;;;;;;;;;;21.32;60.64;101305.50;5107823;28;1913;-63
2021/05/18 07:01:56;;;;;;;;;;;;;;;21.38;59.89;101291.88;5108772;28;1279;-68
2021/05/18 07:04:42;;;;;;;;;;;;;;;21.39;59.61;101298.91;5108653;28;571;-67
2021/05/18 07:07:33;;;;;;;;;;;;;;;21.32;60.07;101301.06;5111328;28;1314;-68
2021/05/18 07:10:18;;;;;;;;;;;;;;;21.28;60.15;101309.28;5129286;28;1248;-69
2021/05/18 07:13:04;;;;;;;;;;;;;;;21.25;60.33;101311.16;5113707;28;1063;-70
2021/05/18 07:15:49;;;;;;;;;;;;;;;21.27;60.18;101303.13;5130840;27;1255;-70
2021/05/18 07:18:35;;;;;;;;;;;;;;;21.24;60.10;101295.38;5133327;27;1906;-69
2021/05/18 07:21:21;;;;;;;;;;;;;;;21.18;60.45;101288.63;5133169;27;1246;-70
2021/05/18 07:24:10;;;;;;;;;;;;;;;21.22;60.15;101289.28;5115834;27;1030;-70
2021/05/18 07:26:56;;;;;;;;;;;;;;;21.24;60.53;101288.28;5114911;27;1276;-68
2021/05/18 07:29:41;;;;;;;;;;;;;;;21.24;60.25;101293.56;5112433;28;631;-70
2021/05/18 07:32:27;;;;;;;;;;;;;;;21.24;60.80;101295.38;5115027;27;1351;-68
2021/05/18 07:35:13;;;;;;;;;;;;;;;21.25;60.86;101294.41;5133605;27;1370;-67
2021/05/18 07:37:58;;;;;;;;;;;;;;;21.33;60.45;101302.78;5133548;27;1975;-67
2021/05/18 07:40:43;;;;;;;;;;;;;;;21.43;60.19;101298.59;5133129;27;1279;-68
2021/05/18 07:43:28;;;;;;;;;;;;;;;21.46;60.54;101302.91;5120342;27;1007;-65
2021/05/18 07:46:18;;;;;;;;;;;;;;;21.49;60.76;101292.13;5111414;28;1307;-64
2021/05/18 07:49:23;;;;;;;;;;;;;;;21.42;60.68;101286.31;5116363;27;1392;-64
2021/05/18 08:07:30;;;;;;;;;;;;;;;21.30;60.99;101281.75;5132507;27;1309;-66
2021/05/18 08:13:03;;;;;;;;;;;;;;;21.28;60.79;101275.66;5131412;27;1126;-66
2021/05/18 09:47:36;;;;;;;;;;;;;;;21.26;60.80;101237.81;5110374;28;628;-66
2021/05/18 10:35:31;;;;;;;;;;;;;;;21.46;60.89;101204.84;5130000;27;1307;-65
2021/05/18 10:38:17;;;;;;;;;;;;;;;21.42;61.09;101212.13;5129951;27;1901;-67
2021/05/18 10:41:05;;;;;;;;;;;;;;;21.43;60.88;101195.25;5129571;27;1360;-69
2021/05/18 10:43:56;;;;;;;;;;;;;;;21.42;61.01;101184.75;5122244;27;1596;-72
2021/05/18 10:46:47;;;;;;;;;;;;;;;21.51;61.16;101184.19;5094485;28;1323;-67
2021/05/18 10:49:34;;;;;;;;;;;;;;;21.48;61.11;101173.78;5123152;27;1514;-67
2021/05/18 10:52:35;;;;;;;;;;;;;;;21.51;61.00;101176.25;5130020;27;1244;-65
2021/05/18 10:55:23;;;;;;;;;;;;;;;21.49;61.14;101167.53;5112942;27;1276;-71
2021/05/18 10:58:28;;;;;;;;;;;;;;;21.54;61.05;101162.78;5127591;27;1973;-72
2021/05/18 11:01:13;;;;;;;;;;;;;;;21.52;61.28;101154.91;5130377;27;1525;-70
2021/05/18 11:03:58;;;;;;;;;;;;;;;21.53;61.41;101153.13;5139164;27;1426;-74
2021/05/18 11:06:50;;;;;;;;;;;;;;;21.48;61.31;101152.56;5128685;27;1274;-72
2021/05/18 11:09:35;;;;;;;;;;;;;;;21.47;61.32;101150.84;5147880;27;718;-74
2021/05/18 11:12:22;;;;;;;;;;;;;;;21.49;61.48;101151.63;5149251;27;1306;-73
2021/05/18 11:15:08;;;;;;;;;;;;;;;21.51;61.36;101131.19;5135913;27;1401;-71
2021/05/18 11:17:54;;;;;;;;;;;;;;;21.53;61.65;101130.13;5128129;28;1147;-73
2021/05/18 11:23:32;;;;;;;;;;;;;;;21.46;61.89;101128.81;5128929;28;639;-71
2021/05/18 11:26:18;;;;;;;;;;;;;;;21.40;61.71;101133.66;5128749;28;1365;-71
2021/05/18 11:29:03;;;;;;;;;;;;;;;21.36;61.82;101122.38;5134032;27;663;-71
2021/05/18 11:31:49;;;;;;;;;;;;;;;21.36;61.83;101111.78;5149017;27;1284;-69
2021/05/18 11:34:34;;;;;;;;;;;;;;;21.37;61.64;101116.13;5148974;27;628;-71
2021/05/18 11:37:21;;;;;;;;;;;;;;;21.37;61.75;101104.69;5148811;27;1289;-72
2021/05/18 11:40:08;;;;;;;;;;;;;;;21.35;61.72;101103.91;5147458;27;1905;-71
2021/05/18 11:42:54;;;;;;;;;;;;;;;21.39;62.04;101105.44;5139301;27;1042;-77
2021/05/18 11:45:39;;;;;;;;;;;;;;;21.50;61.83;101101.16;5133236;27;2215;-73
2021/05/18 11:48:25;;;;;;;;;;;;;;;21.50;61.91;101113.56;5140023;27;1048;-70
2021/05/18 11:51:12;;;;;;;;;;;;;;;21.53;61.40;101108.06;5106797;28;1279;-73
2021/05/18 11:54:03;;;;;;;;;;;;;;;21.51;61.69;101096.72;5124491;28;1259;-71
2021/05/18 11:56:50;;;;;;;;;;;;;;;21.48;61.74;101097.78;5126871;28;1239;-71
2021/05/18 11:59:36;;;;;;;;;;;;;;;21.47;61.70;101098.72;5125861;28;1921;-71
2021/05/18 12:02:22;;;;;;;;;;;;;;;21.50;61.91;101095.00;5110965;28;1283;-71
2021/05/18 12:05:09;;;;;;;;;;;;;;;21.50;61.33;101090.56;5109983;27;1652;-71
2021/05/18 12:07:54;;;;;;;;;;;;;;;21.48;61.64;101079.22;5110644;28;1045;-72
2021/05/18 12:10:42;;;;;;;;;;;;;;;21.53;61.31;101081.56;5110077;28;1260;-73
2021/05/18 12:13:28;;;;;;;;;;;;;;;21.49;61.63;101078.25;5114661;27;1188;-73
2021/05/18 12:16:15;;;;;;;;;;;;;;;21.65;61.50;101075.47;5129766;27;1295;-72
2021/05/18 12:19:00;;;;;;;;;;;;;;;21.71;61.15;101064.47;5113687;27;1880;-73
2021/05/18 12:21:50;;;;;;;;;;;;;;;21.74;61.96;101056.34;5114138;27;1373;-72
2021/05/18 12:24:39;;;;;;;;;;;;;;;21.82;62.28;101062.00;5129507;27;659;-69
2021/05/18 12:27:25;;;;;;;;;;;;;;;21.82;61.76;101059.34;5131133;27;1267;-73
2021/05/18 12:30:13;;;;;;;;;;;;;;;21.78;61.98;101055.19;5130604;27;1338;-68
2021/05/18 12:32:58;;;;;;;;;;;;;;;21.77;62.28;101059.63;5130966;27;1017;-70
2021/05/18 12:35:44;;;;;;;;;;;;;;;21.77;62.09;101051.69;5131709;27;1329;-70
2021/05/18 12:38:29;;;;;;;;;;;;;;;21.79;61.60;101055.06;5114408;27;1970;-66
2021/05/18 12:41:15;;;;;;;;;;;;;;;21.79;61.95;101044.47;5122722;27;1396;-68
2021/05/18 12:44:05;;;;;;;;;;;;;;;21.79;61.59;101051.59;5125533;27;1133;-68
2021/05/18 12:46:51;;;;;;;;;;;;;;;21.74;61.20;101046.59;5118186;27;1286;-68
2021/05/18 12:49:39;;;;;;;;;;;;;;;21.72;61.33;101039.69;5122613;27;1550;-69
2021/05/18 12:52:35;;;;;;;;;;;;;;;21.66;60.96;101029.47;5115048;27;1042;-70
2021/05/18 12:55:29;;;;;;;;;;;;;;;21.70;61.04;101033.63;5131958;27;1413;-69
2021/05/18 12:58:23;;;;;;;;;;;;;;;21.65;60.94;101012.72;5150070;27;682;-68
2021/05/18 13:01:13;;;;;;;;;;;;;;;21.64;61.20;101010.19;5141052;27;1315;-68
2021/05/18 13:04:07;;;;;;;;;;;;;;;21.66;60.87;101010.91;5129681;27;713;-69
2021/05/18 13:06:54;;;;;;;;;;;;;;;21.67;61.09;101015.28;5129485;27;1643;-69
2021/05/18 13:09:41;;;;;;;;;;;;;;;21.64;61.22;101008.34;5129723;27;702;-68
2021/05/18 13:12:27;;;;;;;;;;;;;;;21.65;61.27;100996.81;5150206;27;1330;-69
2021/05/18 13:15:19;;;;;;;;;;;;;;;21.64;60.93;101000.41;5149244;27;1412;-69
2021/05/18 13:18:07;;;;;;;;;;;;;;;21.70;60.93;100983.25;5129167;27;1086;-69
2021/05/18 13:21:01;;;;;;;;;;;;;;;21.68;60.76;100982.50;5115033;27;1342;-69
2021/05/18 13:26:41;;;;;;;;;;;;;;;21.67;60.76;100972.88;5129914;27;1390;-68
2021/05/18 13:29:27;;;;;;;;;;;;;;;21.69;60.89;100965.66;5113896;27;683;-68
2021/05/18 13:32:12;;;;;;;;;;;;;;;21.72;60.72;100970.75;5147341;27;1324;-67
2021/05/18 13:35:05;;;;;;;;;;;;;;;21.69;60.96;100944.44;5149793;27;706;-67
2021/05/18 13:37:50;;;;;;;;;;;;;;;21.66;60.76;100945.50;5133903;27;1180;-67
2021/05/18 13:40:36;;;;;;;;;;;;;;;21.74;61.37;100952.94;5149190;27;1933;-67
2021/05/18 13:43:22;;;;;;;;;;;;;;;21.73;61.52;100956.56;5148701;27;1425;-63
2021/05/18 13:46:08;;;;;;;;;;;;;;;21.76;61.38;100951.03;5142440;27;1381;-67
2021/05/18 13:48:53;;;;;;;;;;;;;;;21.72;61.39;100952.19;5134397;27;1414;-67
2021/05/18 13:51:39;;;;;;;;;;;;;;;21.69;61.17;100941.78;5121815;27;1422;-67
2021/05/18 13:54:38;;;;;;;;;;;;;;;21.73;61.52;100932.69;5128178;27;701;-69
2021/05/18 13:57:25;;;;;;;;;;;;;;;21.77;62.10;100931.50;5128524;27;1403;-68
2021/05/18 14:00:13;;;;;;;;;;;;;;;21.76;62.08;100929.84;5112270;27;1972;-68
2021/05/18 14:02:58;;;;;;;;;;;;;;;21.74;62.07;100944.97;5128645;27;1049;-66
2021/05/18 14:05:44;;;;;;;;;;;;;;;21.75;62.20;100917.50;5128414;27;1291;-71
2021/05/18 14:08:37;;;;;;;;;;;;;;;21.76;62.16;100916.56;5129589;27;695;-72
2021/05/18 14:11:23;;;;;;;;;;;;;;;21.77;61.96;100910.28;5129330;27;1365;-69
2021/05/18 14:14:08;;;;;;;;;;;;;;;21.74;61.26;100903.41;5129968;27;608;-67
2021/05/18 14:16:53;;;;;;;;;;;;;;;21.72;61.52;100901.81;5128928;27;1374;-69
2021/05/18 14:19:39;;;;;;;;;;;;;;;21.68;61.00;100897.66;5129260;27;1949;-65
2021/05/18 14:22:25;;;;;;;;;;;;;;;21.62;61.10;100896.25;5128908;27;1550;-66
2021/05/18 14:25:11;;;;;;;;;;;;;;;21.62;61.07;100884.81;5128535;27;1371;-66
2021/05/18 14:28:14;;;;;;;;;;;;;;;21.59;60.68;100875.25;5128838;27;671;-67
2021/05/18 14:31:00;;;;;;;;;;;;;;;21.61;60.40;100870.69;5128944;27;1362;-66
2021/05/18 14:33:45;;;;;;;;;;;;;;;21.62;60.60;100853.84;5128803;27;690;-67
2021/05/18 14:36:31;;;;;;;;;;;;;;;21.59;60.76;100866.47;5113478;27;1311;-68
2021/05/18 14:39:34;;;;;;;;;;;;;;;21.59;61.28;100853.22;5128494;27;1971;-66
2021/05/18 14:45:31;;;;;;;;;;;;;;;21.65;60.99;100839.53;5128280;27;1306;-68
2021/05/18 14:57:05;;;;;;;;;;;;;;;21.73;61.33;100834.59;5127817;27;1310;-67
2021/05/18 14:59:51;;;;;;;;;;;;;;;21.73;61.14;100830.09;5127336;27;1971;-66
2021/05/18 15:02:36;;;;;;;;;;;;;;;21.74;61.28;100821.22;5127981;27;1073;-67
2021/05/18 15:05:24;;;;;;;;;;;;;;;21.77;61.24;100821.00;5112006;27;1259;-64
2021/05/18 15:08:09;;;;;;;;;;;;;;;21.79;61.53;100823.56;5127751;27;608;-68
2021/05/18 15:11:04;;;;;;;;;;;;;;;21.80;61.28;100815.50;5128736;27;1389;-67
2021/05/18 15:13:50;;;;;;;;;;;;;;;21.82;61.10;100804.78;5127893;27;722;-66
2021/05/18 15:16:35;;;;;;;;;;;;;;;21.87;61.43;100807.09;5127922;28;1346;-68
2021/05/18 15:19:23;;;;;;;;;;;;;;;21.89;60.69;100802.56;5127327;28;1910;-67
2021/05/18 15:22:09;;;;;;;;;;;;;;;21.90;60.77;100791.03;5126795;27;1592;-65
2021/05/18 15:24:54;;;;;;;;;;;;;;;21.88;60.84;100796.44;5130686;27;1006;-67
2021/05/18 15:27:39;;;;;;;;;;;;;;;21.89;60.86;100800.78;5132331;27;1238;-67
2021/05/18 15:30:25;;;;;;;;;;;;;;;21.91;60.35;100795.38;5135286;27;1405;-64
2021/05/18 15:33:11;;;;;;;;;;;;;;;21.91;60.45;100798.03;5134002;27;1294;-65
2021/05/18 15:35:56;;;;;;;;;;;;;;;21.92;60.38;100781.16;5128575;27;1389;-66
2021/05/18 15:38:45;;;;;;;;;;;;;;;21.93;60.58;100789.00;5116616;27;726;-64
2021/05/18 15:41:31;;;;;;;;;;;;;;;21.94;60.52;100779.25;5134243;27;1283;-68
2021/05/18 15:44:16;;;;;;;;;;;;;;;21.97;60.12;100787.84;5139359;27;971;-68
2021/05/18 15:47:03;;;;;;;;;;;;;;;22.02;60.11;100783.06;5148853;27;1428;-69
2021/05/18 15:49:49;;;;;;;;;;;;;;;22.07;59.77;100791.53;5149735;27;1546;-71
2021/05/18 15:52:35;;;;;;;;;;;;;;;22.09;58.92;100783.47;5152678;27;1092;-72
2021/05/18 15:55:20;;;;;;;;;;;;;;;22.10;59.64;100780.72;5131791;27;1374;-69
2021/05/18 15:58:05;;;;;;;;;;;;;;;22.08;59.60;100765.88;5131323;27;1055;-74
2021/05/18 16:00:52;;;;;;;;;;;;;;;22.09;59.71;100780.84;5130900;27;1918;-73
2021/05/18 16:03:37;;;;;;;;;;;;;;;22.11;59.92;100778.91;5130803;27;955;-72
2021/05/18 16:06:23;;;;;;;;;;;;;;;22.13;59.94;100788.44;5131307;27;1303;-68
2021/05/18 16:09:09;;;;;;;;;;;;;;;22.18;60.23;100783.69;5115403;27;644;-66
2021/05/18 16:11:54;;;;;;;;;;;;;;;22.14;60.23;100781.34;5130743;27;1276;-67
2021/05/18 16:14:40;;;;;;;;;;;;;;;22.17;60.41;100786.44;5132868;27;656;-67
2021/05/18 16:17:26;;;;;;;;;;;;;;;22.13;60.55;100769.88;5117183;27;1323;-68
2021/05/18 16:20:11;;;;;;;;;;;;;;;22.15;60.42;100775.94;5132687;27;1969;-67
2021/05/18 16:22:56;;;;;;;;;;;;;;;22.14;60.66;100760.97;5132633;27;1138;-69
2021/05/18 16:25:42;;;;;;;;;;;;;;;22.15;60.59;100762.69;5132771;27;1287;-71
2021/05/18 16:28:28;;;;;;;;;;;;;;;22.12;60.64;100760.25;5132386;27;648;-69
2021/05/18 16:31:13;;;;;;;;;;;;;;;22.12;60.82;100754.09;5132466;27;1274;-70
2021/05/18 16:33:59;;;;;;;;;;;;;;;22.11;60.83;100755.03;5117192;27;691;-68
2021/05/18 16:36:44;;;;;;;;;;;;;;;22.10;61.13;100763.97;5132533;27;1322;-68
2021/05/18 16:39:30;;;;;;;;;;;;;;;22.08;60.67;100761.41;5132557;27;1905;-67
2021/05/18 16:42:15;;;;;;;;;;;;;;;22.07;61.04;100766.84;5132848;27;1373;-69
2021/05/18 16:45:01;;;;;;;;;;;;;;;22.07;60.78;100770.31;5116816;27;699;-70
2021/05/18 16:47:49;;;;;;;;;;;;;;;22.06;60.93;100773.09;5131989;27;1490;-71
2021/05/18 16:50:34;;;;;;;;;;;;;;;22.05;61.03;100771.38;5131976;27;1242;-69
2021/05/18 16:53:19;;;;;;;;;;;;;;;22.04;61.10;100759.91;5132394;27;667;-71
2021/05/18 16:56:07;;;;;;;;;;;;;;;22.03;61.21;100763.56;5132586;27;1406;-70
2021/05/18 16:58:52;;;;;;;;;;;;;;;22.14;61.24;100763.63;5132053;27;681;-73
2021/05/18 17:01:38;;;;;;;;;;;;;;;22.13;61.30;100772.53;5116293;27;1905;-67
2021/05/18 17:04:33;;;;;;;;;;;;;;;22.11;61.43;100766.50;5131649;27;699;-71
2021/05/18 17:07:19;;;;;;;;;;;;;;;22.13;61.46;100763.75;5131956;27;1255;-67
2021/05/18 17:10:05;;;;;;;;;;;;;;;22.10;61.66;100771.94;5131560;27;624;-69
2021/05/18 17:12:51;;;;;;;;;;;;;;;22.11;61.40;100773.59;5116136;27;1062;-68
2021/05/18 17:15:37;;;;;;;;;;;;;;;22.10;61.64;100780.72;5131087;27;1267;-67
2021/05/18 17:18:23;;;;;;;;;;;;;;;22.13;61.44;100780.50;5131576;27;667;-68
2021/05/18 17:21:08;;;;;;;;;;;;;;;22.08;61.55;100784.44;5131462;27;1901;-66
2021/05/18 17:23:54;;;;;;;;;;;;;;;22.12;61.71;100783.28;5131342;27;672;-66
2021/05/18 17:26:39;;;;;;;;;;;;;;;22.09;61.65;100792.28;5139061;27;1587;-66
2021/05/18 17:29:25;;;;;;;;;;;;;;;22.09;61.86;100778.19;5124453;27;1694;-69
2021/05/18 17:32:11;;;;;;;;;;;;;;;22.08;61.88;100782.63;5129969;27;1384;-68
2021/05/18 17:34:56;;;;;;;;;;;;;;;22.07;61.94;100783.56;5114179;27;714;-67
2021/05/18 17:37:42;;;;;;;;;;;;;;;22.06;61.46;100773.94;5130157;27;1041;-68
2021/05/18 17:40:27;;;;;;;;;;;;;;;22.05;61.70;100772.25;5129774;27;1906;-68
2021/05/18 17:43:14;;;;;;;;;;;;;;;22.06;61.80;100762.47;5114766;27;636;-68
2021/05/18 17:46:02;;;;;;;;;;;;;;;22.05;61.39;100771.38;5114222;27;1283;-67
2021/05/18 17:48:47;;;;;;;;;;;;;;;22.01;62.44;100759.31;5129011;27;1595;-65
2021/05/18 17:51:35;;;;;;;;;;;;;;;22.13;61.86;100758.44;5122204;27;1401;-67
2021/05/18 17:54:22;;;;;;;;;;;;;;;22.08;61.59;100761.41;5144384;27;695;-67
2021/05/18 17:57:07;;;;;;;;;;;;;;;22.05;61.74;100766.06;5130698;27;1450;-66
2021/05/18 17:59:52;;;;;;;;;;;;;;;22.00;62.27;100763.75;5139229;27;1901;-67
2021/05/18 18:02:38;;;;;;;;;;;;;;;22.03;62.19;100768.00;5142841;27;1418;-67
2021/05/18 18:05:23;;;;;;;;;;;;;;;22.01;61.68;100773.41;5128993;27;1233;-67
2021/05/18 18:08:08;;;;;;;;;;;;;;;22.03;62.27;100784.78;5129557;27;1732;-66
2021/05/18 18:10:54;;;;;;;;;;;;;;;22.03;61.76;100789.22;5129433;27;1291;-67
2021/05/18 18:13:40;;;;;;;;;;;;;;;22.02;62.01;100783.06;5129226;27;631;-66
2021/05/18 18:16:25;;;;;;;;;;;;;;;21.96;61.38;100783.50;5128986;27;1279;-67
2021/05/18 18:19:11;;;;;;;;;;;;;;;21.86;60.80;100781.53;5128988;27;659;-67
2021/05/18 18:21:57;;;;;;;;;;;;;;;21.78;60.38;100790.03;5135557;27;1934;-68
2021/05/18 18:24:42;;;;;;;;;;;;;;;21.71;60.30;100792.25;5138878;27;1027;-68
2021/05/18 18:27:30;;;;;;;;;;;;;;;21.67;60.57;100795.25;5139062;27;1428;-67
2021/05/18 18:30:15;;;;;;;;;;;;;;;21.66;60.40;100797.03;5139002;27;1321;-67
2021/05/18 18:33:01;;;;;;;;;;;;;;;21.65;60.76;100797.13;5138945;27;1089;-69
2021/05/18 18:35:47;;;;;;;;;;;;;;;21.65;60.56;100805.06;5136499;27;1421;-68
2021/05/18 18:38:32;;;;;;;;;;;;;;;21.61;60.83;100799.13;5117267;27;1093;-68
2021/05/18 18:41:17;;;;;;;;;;;;;;;21.63;61.05;100797.25;5122675;27;2000;-66
2021/05/18 18:44:03;;;;;;;;;;;;;;;21.62;61.09;100799.97;5130632;27;1188;-68
2021/05/18 18:46:48;;;;;;;;;;;;;;;21.61;60.60;100804.44;5137726;27;1341;-68
2021/05/18 18:49:39;;;;;;;;;;;;;;;21.58;60.63;100809.94;5139381;27;1185;-66
2021/05/18 18:53:16;;;;;;;;;;;;;;;21.61;60.75;100814.22;5138148;27;1306;-67
2021/05/18 18:55:36;;;;;;;;;;;;;;;21.63;60.64;100807.84;5138091;27;1372;-68
2021/05/18 18:58:21;;;;;;;;;;;;;;;21.63;60.90;100817.59;5121441;27;1097;-68
2021/05/18 19:01:07;;;;;;;;;;;;;;;21.56;60.71;100825.09;5138282;27;1925;-67
2021/05/18 19:03:56;;;;;;;;;;;;;;;21.55;60.34;100828.69;5138979;27;1065;-66
2021/05/18 19:06:57;;;;;;;;;;;;;;;21.60;60.49;100839.00;5124355;27;1307;-68
2021/05/18 19:09:53;;;;;;;;;;;;;;;21.62;60.20;100853.00;5137838;27;1235;-71
2021/05/18 19:12:48;;;;;;;;;;;;;;;21.52;60.97;100851.94;5139940;27;1132;-72
2021/05/18 19:15:33;;;;;;;;;;;;;;;21.44;61.19;100854.22;5123766;27;1314;-69
2021/05/18 19:18:18;;;;;;;;;;;;;;;21.37;61.48;100859.09;5139636;27;1105;-71
2021/05/18 19:21:05;;;;;;;;;;;;;;;21.37;61.58;100866.22;5137719;27;1897;-73
2021/05/18 19:23:50;;;;;;;;;;;;;;;21.38;61.81;100871.38;5138330;27;1086;-71
2021/05/18 19:26:36;;;;;;;;;;;;;;;21.41;61.68;100886.22;5139045;27;1302;-72
2021/05/18 19:29:22;;;;;;;;;;;;;;;21.43;61.54;100882.53;5139671;27;1077;-71
2021/05/18 19:32:07;;;;;;;;;;;;;;;21.48;61.58;100887.53;5138011;27;1307;-72
2021/05/18 19:34:53;;;;;;;;;;;;;;;21.42;61.36;100878.19;5138134;27;1247;-70
2021/05/18 19:50:17;;;;;;;;;;;;;;;21.41;61.32;100912.72;5136859;27;1346;-68
2021/05/18 19:53:13;;;;;;;;;;;;;;;21.44;61.18;100924.00;5138919;27;1197;-70
2021/05/18 19:56:02;;;;;;;;;;;;;;;21.45;61.08;100925.69;5123884;27;1618;-69